sensor_id;sensor_type;location;lat;lon;timestamp;P1;durP1;ratioP1;P2;durP2;ratioP2
75135;SDS011;63707;52.212;9.540;2022-09-20T14:37:52;4.43;;;1.20;;
75135;SDS011;63707;52.212;9.540;2022-09-20T14:40:39;5.47;;;1.85;;
75135;SDS011;63707;52.212;9.540;2022-09-20T14:43:15;4.53;;;0.90;;
75135;SDS011;63707;52.212;9.540;2022-09-20T14:46:11;3.38;;;0.75;;
75135;SDS011;63707;52.212;9.540;2022-09-20T14:48:40;1.77;;;0.45;;
75135;SDS011;63707;52.212;9.540;2022-09-20T14:52:42;4.30;;;0.95;;
75135;SDS011;63707;52.212;9.540;2022-09-20T14:55:16;4.63;;;1.00;;
75135;SDS011;63707;52.212;9.540;2022-09-20T14:57:52;1.00;;;0.38;;
75135;SDS011;63707;52.212;9.540;2022-09-20T15:00:22;2.25;;;0.82;;
75135;SDS011;63707;52.212;9.540;2022-09-20T15:03:39;1.17;;;0.50;;
75135;SDS011;63707;52.212;9.540;2022-09-20T15:06:08;3.00;;;0.65;;
75135;SDS011;63707;52.212;9.540;2022-09-20T15:08:34;0.75;;;0.40;;
75135;SDS011;63707;52.212;9.540;2022-09-20T15:11:00;2.25;;;0.55;;
75135;SDS011;63707;52.212;9.540;2022-09-20T15:13:26;1.75;;;0.50;;
75135;SDS011;63707;52.212;9.540;2022-09-20T15:15:52;2.78;;;0.50;;
75135;SDS011;63707;52.212;9.540;2022-09-20T15:18:18;3.85;;;0.60;;
75135;SDS011;63707;52.212;9.540;2022-09-20T15:20:47;1.27;;;0.45;;
75135;SDS011;63707;52.212;9.540;2022-09-20T15:23:13;1.73;;;0.60;;
75135;SDS011;63707;52.212;9.540;2022-09-20T15:25:38;2.22;;;0.40;;
75135;SDS011;63707;52.212;9.540;2022-09-20T15:28:04;1.27;;;0.45;;
75135;SDS011;63707;52.212;9.540;2022-09-20T15:30:31;3.45;;;0.47;;
75135;SDS011;63707;52.212;9.540;2022-09-20T15:32:57;3.22;;;0.50;;
75135;SDS011;63707;52.212;9.540;2022-09-20T15:35:23;2.25;;;0.55;;
75135;SDS011;63707;52.212;9.540;2022-09-20T15:37:49;3.05;;;0.50;;
75135;SDS011;63707;52.212;9.540;2022-09-20T15:40:15;3.33;;;0.52;;
75135;SDS011;63707;52.212;9.540;2022-09-20T15:42:41;2.00;;;0.63;;
75135;SDS011;63707;52.212;9.540;2022-09-20T15:45:08;3.88;;;0.75;;
75135;SDS011;63707;52.212;9.540;2022-09-20T15:47:35;2.83;;;0.65;;
75135;SDS011;63707;52.212;9.540;2022-09-20T15:50:01;1.63;;;0.50;;
75135;SDS011;63707;52.212;9.540;2022-09-20T15:52:31;3.92;;;1.27;;
75135;SDS011;63707;52.212;9.540;2022-09-20T15:54:59;2.70;;;0.60;;
75135;SDS011;63707;52.212;9.540;2022-09-20T15:57:27;1.88;;;0.47;;
75135;SDS011;63707;52.212;9.540;2022-09-20T15:59:53;3.25;;;1.48;;
75135;SDS011;63707;52.212;9.540;2022-09-20T16:02:19;3.55;;;0.82;;
75135;SDS011;63707;52.212;9.540;2022-09-20T16:04:45;3.45;;;0.70;;
75135;SDS011;63707;52.212;9.540;2022-09-20T16:07:11;2.05;;;0.63;;
75135;SDS011;63707;52.212;9.540;2022-09-20T16:09:37;3.15;;;0.90;;
75135;SDS011;63707;52.212;9.540;2022-09-20T16:12:04;3.45;;;0.73;;
75135;SDS011;63707;52.212;9.540;2022-09-20T16:14:30;3.05;;;0.80;;
75135;SDS011;63707;52.212;9.540;2022-09-20T16:16:55;3.72;;;1.13;;
75135;SDS011;63707;52.212;9.540;2022-09-20T16:19:21;5.90;;;1.10;;
75135;SDS011;63707;52.212;9.540;2022-09-20T16:21:49;2.88;;;1.10;;
75135;SDS011;63707;52.212;9.540;2022-09-20T16:24:18;6.15;;;0.88;;
75135;SDS011;63707;52.212;9.540;2022-09-20T16:26:46;4.30;;;1.10;;
75135;SDS011;63707;52.212;9.540;2022-09-20T16:29:12;4.65;;;1.65;;
75135;SDS011;63707;52.212;9.540;2022-09-20T16:31:39;3.63;;;1.10;;
75135;SDS011;63707;52.212;9.540;2022-09-20T16:34:06;2.83;;;1.00;;
75135;SDS011;63707;52.212;9.540;2022-09-20T16:36:36;3.50;;;1.00;;
75135;SDS011;63707;52.212;9.540;2022-09-20T16:39:02;6.63;;;1.10;;
75135;SDS011;63707;52.212;9.540;2022-09-20T16:41:28;3.90;;;0.85;;
75135;SDS011;63707;52.212;9.540;2022-09-20T16:43:55;6.03;;;0.93;;
75135;SDS011;63707;52.212;9.540;2022-09-20T16:46:22;4.43;;;1.23;;
75135;SDS011;63707;52.212;9.540;2022-09-20T16:48:51;4.82;;;1.48;;
75135;SDS011;63707;52.212;9.540;2022-09-20T16:51:18;3.78;;;1.10;;
75135;SDS011;63707;52.212;9.540;2022-09-20T16:53:44;7.70;;;1.27;;
75135;SDS011;63707;52.212;9.540;2022-09-20T16:56:16;3.67;;;1.80;;
75135;SDS011;63707;52.212;9.540;2022-09-20T16:58:42;4.43;;;1.52;;
75135;SDS011;63707;52.212;9.540;2022-09-20T17:01:08;5.45;;;1.42;;
75135;SDS011;63707;52.212;9.540;2022-09-20T17:03:36;3.17;;;1.15;;
75135;SDS011;63707;52.212;9.540;2022-09-20T17:06:05;6.50;;;1.23;;
75135;SDS011;63707;52.212;9.540;2022-09-20T17:08:32;3.67;;;1.08;;
75135;SDS011;63707;52.212;9.540;2022-09-20T17:11:04;4.13;;;1.23;;
75135;SDS011;63707;52.212;9.540;2022-09-20T17:13:32;3.92;;;1.00;;
75135;SDS011;63707;52.212;9.540;2022-09-20T17:15:59;4.50;;;0.95;;
75135;SDS011;63707;52.212;9.540;2022-09-20T17:18:25;3.35;;;1.13;;
75135;SDS011;63707;52.212;9.540;2022-09-20T17:20:52;4.85;;;1.23;;
75135;SDS011;63707;52.212;9.540;2022-09-20T17:23:17;4.75;;;1.48;;
75135;SDS011;63707;52.212;9.540;2022-09-20T17:25:43;5.55;;;1.60;;
75135;SDS011;63707;52.212;9.540;2022-09-20T17:28:09;5.30;;;1.10;;
75135;SDS011;63707;52.212;9.540;2022-09-20T17:30:34;4.65;;;1.38;;
75135;SDS011;63707;52.212;9.540;2022-09-20T17:33:00;3.53;;;1.10;;
75135;SDS011;63707;52.212;9.540;2022-09-20T17:35:25;8.82;;;4.70;;
75135;SDS011;63707;52.212;9.540;2022-09-20T17:37:54;5.15;;;1.60;;
75135;SDS011;63707;52.212;9.540;2022-09-20T17:40:20;5.03;;;1.65;;
75135;SDS011;63707;52.212;9.540;2022-09-20T17:42:45;4.80;;;1.63;;
75135;SDS011;63707;52.212;9.540;2022-09-20T17:45:11;6.93;;;2.20;;
75135;SDS011;63707;52.212;9.540;2022-09-20T17:47:37;10.68;;;5.95;;
75135;SDS011;63707;52.212;9.540;2022-09-20T17:50:06;5.28;;;2.60;;
75135;SDS011;63707;52.212;9.540;2022-09-20T17:52:32;15.45;;;9.65;;
75135;SDS011;63707;52.212;9.540;2022-09-20T17:54:58;5.88;;;5.07;;
75135;SDS011;63707;52.212;9.540;2022-09-20T17:57:24;6.28;;;4.40;;
75135;SDS011;63707;52.212;9.540;2022-09-20T17:59:49;6.03;;;3.42;;
75135;SDS011;63707;52.212;9.540;2022-09-20T18:02:15;6.43;;;4.07;;
75135;SDS011;63707;52.212;9.540;2022-09-20T18:04:40;6.07;;;2.40;;
75135;SDS011;63707;52.212;9.540;2022-09-20T18:07:06;5.75;;;1.98;;
75135;SDS011;63707;52.212;9.540;2022-09-20T18:09:32;7.28;;;2.30;;
75135;SDS011;63707;52.212;9.540;2022-09-20T18:11:59;5.93;;;2.20;;
75135;SDS011;63707;52.212;9.540;2022-09-20T18:14:29;5.97;;;1.70;;
75135;SDS011;63707;52.212;9.540;2022-09-20T18:16:56;4.50;;;1.73;;
75135;SDS011;63707;52.212;9.540;2022-09-20T18:19:24;7.40;;;1.92;;
75135;SDS011;63707;52.212;9.540;2022-09-20T18:21:56;4.82;;;1.80;;
75135;SDS011;63707;52.212;9.540;2022-09-20T18:24:21;4.88;;;1.50;;
75135;SDS011;63707;52.212;9.540;2022-09-20T18:26:47;3.72;;;1.77;;
75135;SDS011;63707;52.212;9.540;2022-09-20T18:29:14;6.70;;;2.25;;
75135;SDS011;63707;52.212;9.540;2022-09-20T18:31:44;11.05;;;4.30;;
75135;SDS011;63707;52.212;9.540;2022-09-20T18:34:12;10.20;;;5.30;;
75135;SDS011;63707;52.212;9.540;2022-09-20T18:36:42;10.40;;;4.13;;
75135;SDS011;63707;52.212;9.540;2022-09-20T18:39:09;5.88;;;3.00;;
